Garre, Argentina
Current Conditions -  °F | °C
As of 6:00 AM on Monday 24 Nov 2014 (Local Time) from SAOC Reporting Station
Thunderstorm Thunderstorm  
Wind Chill: 64°   Ceiling: 2500
Heat Index: 64°   Visibility: 6mi
Dew Point: 59°   Wind: 13mph
Humidity: 83%   Direction: 180°S
Pressure: 29.74"   Gusts: NA
Location:  36.57°S, 62.6°W
Report Text: SAOC 240900Z 18011KT 9999 TS BKN025FEW030CB 18/15 Q1007
Loading
Personal Weather Stations






























Interactive Weather Map New forecast layout! Learn more

10-Day Weather Forecast

Advertisements
Track Severe Weather on mobile